Time;durP1;ratioP1;P1;durP2;ratioP2;P2;SDS_P1;SDS_P2;PMS_P1;PMS_P2;Temp;Humidity;BMP_temperature;BMP_pressure;BME280_temperature;BME280_humidity;BME280_pressure;Samples;Min_cycle;Max_cycle;Signal;HPM_P1;HPM_P2
2024/01/02 00:01:26;;;;;;;;;;;15.50;99.90;;;;;;5090920;28;19912;-81
2024/01/02 00:03:52;;;;;;;;;;;15.50;99.90;;;;;;5090898;28;20297;-81
2024/01/02 00:06:17;;;;;;;;;;;15.50;99.90;;;;;;5089091;28;19978;-82
2024/01/02 00:08:43;;;;;;;;;;;15.50;99.90;;;;;;5090554;28;19970;-80
2024/01/02 00:11:09;;;;;;;;;;;15.50;99.90;;;;;;5090598;28;19916;-81
2024/01/02 00:13:35;;;;;;;;;;;15.50;99.90;;;;;;5090840;28;19920;-81
2024/01/02 00:16:01;;;;;;;;;;;15.50;99.90;;;;;;5088980;28;19908;-80
2024/01/02 00:18:27;;;;;;;;;;;15.50;99.90;;;;;;5090577;28;20440;-81
2024/01/02 00:20:53;;;;;;;;;;;15.50;99.90;;;;;;5089004;28;19916;-81
2024/01/02 00:23:18;;;;;;;;;;;15.50;99.90;;;;;;5090804;28;20352;-81
2024/01/02 00:25:44;;;;;;;;;;;15.50;99.90;;;;;;5088477;28;19972;-81
2024/01/02 00:28:11;;;;;;;;;;;15.50;99.90;;;;;;5090337;28;19946;-81
2024/01/02 00:30:37;;;;;;;;;;;15.50;99.90;;;;;;5088737;28;20259;-81
2024/01/02 00:33:03;;;;;;;;;;;15.50;99.90;;;;;;5090098;28;19944;-81
2024/01/02 00:35:32;;;;;;;;;;;15.50;99.90;;;;;;5092287;28;19912;-81
2024/01/02 00:37:58;;;;;;;;;;;15.50;99.90;;;;;;5092768;28;20438;-82
2024/01/02 00:40:24;;;;;;;;;;;15.50;99.90;;;;;;5094437;28;19966;-81
2024/01/02 00:42:49;;;;;;;;;;;15.50;99.90;;;;;;5094244;28;19926;-82
2024/01/02 00:45:15;;;;;;;;;;;15.50;99.90;;;;;;5094463;28;19908;-81
2024/01/02 00:47:41;;;;;;;;;;;15.40;99.90;;;;;;5092592;28;20007;-82
2024/01/02 00:50:07;;;;;;;;;;;15.40;99.90;;;;;;5092463;28;20297;-81
2024/01/02 00:52:33;;;;;;;;;;;15.50;99.90;;;;;;5093520;28;19916;-81
2024/01/02 00:54:59;;;;;;;;;;;15.40;99.90;;;;;;5093929;28;19916;-81
2024/01/02 00:57:26;;;;;;;;;;;15.40;99.90;;;;;;5092732;28;19908;-81
2024/01/02 00:59:51;;;;;;;;;;;15.40;99.90;;;;;;5092407;28;20367;-82
2024/01/02 01:02:17;;;;;;;;;;;15.40;99.90;;;;;;5094041;28;19959;-82
2024/01/02 01:04:43;;;;;;;;;;;15.30;99.90;;;;;;5093735;28;20441;-80
2024/01/02 01:07:10;;;;;;;;;;;15.30;99.90;;;;;;5094061;28;19915;-81
2024/01/02 01:09:35;;;;;;;;;;;15.00;99.90;;;;;;5093802;28;19915;-80
2024/01/02 01:12:04;;;;;;;;;;;15.00;99.90;;;;;;5093589;28;19912;-75
2024/01/02 01:14:30;;;;;;;;;;;15.00;99.90;;;;;;5094019;28;19912;-81
2024/01/02 01:16:56;;;;;;;;;;;14.90;99.90;;;;;;5095149;28;19908;-81
2024/01/02 01:19:22;;;;;;;;;;;14.90;99.90;;;;;;5091734;28;19927;-81
2024/01/02 01:21:47;;;;;;;;;;;15.00;99.90;;;;;;5093598;28;20077;-81
2024/01/02 01:24:13;;;;;;;;;;;15.00;99.90;;;;;;5093446;28;19912;-80
2024/01/02 01:26:39;;;;;;;;;;;15.00;99.90;;;;;;5091564;28;19908;-81
2024/01/02 01:29:05;;;;;;;;;;;15.10;99.90;;;;;;5093530;28;19908;-81
2024/01/02 01:31:31;;;;;;;;;;;15.10;99.90;;;;;;5092225;28;19973;-81
2024/01/02 01:33:59;;;;;;;;;;;15.00;99.90;;;;;;5093329;28;19912;-80
2024/01/02 01:36:26;;;;;;;;;;;15.10;99.90;;;;;;5093264;28;19916;-80
2024/01/02 01:38:51;;;;;;;;;;;15.10;99.90;;;;;;5093297;28;20371;-81
2024/01/02 01:41:18;;;;;;;;;;;15.00;99.90;;;;;;5093199;28;20366;-81
2024/01/02 01:43:44;;;;;;;;;;;15.00;99.90;;;;;;5093197;28;19912;-81
2024/01/02 01:46:10;;;;;;;;;;;15.00;99.90;;;;;;5090839;28;19915;-81
2024/01/02 01:48:36;;;;;;;;;;;15.00;99.90;;;;;;5092491;28;19908;-81
2024/01/02 01:51:02;;;;;;;;;;;15.00;99.90;;;;;;5091199;28;19908;-81
2024/01/02 01:53:28;;;;;;;;;;;15.10;99.90;;;;;;5092692;28;20359;-81
2024/01/02 01:55:55;;;;;;;;;;;15.10;99.90;;;;;;5090927;28;20344;-80
2024/01/02 01:58:21;;;;;;;;;;;15.20;99.90;;;;;;5092698;28;19908;-81
2024/01/02 02:00:46;;;;;;;;;;;15.10;99.90;;;;;;5092758;28;19916;-81
2024/01/02 02:03:13;;;;;;;;;;;15.10;99.90;;;;;;5091059;28;20328;-81
2024/01/02 02:05:38;;;;;;;;;;;15.00;99.90;;;;;;5092609;28;19954;-81
2024/01/02 02:08:04;;;;;;;;;;;15.00;99.90;;;;;;5092984;28;19908;-80
2024/01/02 02:10:30;;;;;;;;;;;15.00;99.90;;;;;;5092605;28;19914;-82
2024/01/02 02:12:57;;;;;;;;;;;14.80;99.90;;;;;;5092537;28;19958;-81
2024/01/02 02:15:23;;;;;;;;;;;14.70;99.90;;;;;;5092588;28;20419;-81
2024/01/02 02:17:49;;;;;;;;;;;14.80;99.90;;;;;;5091026;28;19988;-81
2024/01/02 02:20:15;;;;;;;;;;;14.80;99.90;;;;;;5092159;28;19908;-80
2024/01/02 02:22:50;;;;;;;;;;;14.80;99.90;;;;;;5093118;28;19915;-82
2024/01/02 02:25:16;;;;;;;;;;;14.80;99.90;;;;;;5092227;28;19961;-81
2024/01/02 02:27:42;;;;;;;;;;;14.80;99.90;;;;;;5092541;28;19919;-78
2024/01/02 02:30:09;;;;;;;;;;;14.90;99.90;;;;;;5092061;28;19919;-81
2024/01/02 02:32:34;;;;;;;;;;;14.90;99.90;;;;;;5091959;28;20263;-81
2024/01/02 02:35:00;;;;;;;;;;;14.90;99.90;;;;;;5091630;28;19977;-81
2024/01/02 02:37:26;;;;;;;;;;;14.90;99.90;;;;;;5090226;28;19920;-80
2024/01/02 02:39:52;;;;;;;;;;;15.00;99.90;;;;;;5090246;28;19943;-81
2024/01/02 02:42:17;;;;;;;;;;;15.00;99.90;;;;;;5092067;28;19919;-81
2024/01/02 02:44:44;;;;;;;;;;;15.00;99.90;;;;;;5091819;28;19987;-81
2024/01/02 02:47:09;;;;;;;;;;;15.10;99.90;;;;;;5092240;28;19991;-81
2024/01/02 02:49:42;;;;;;;;;;;15.00;99.90;;;;;;5091559;28;20309;-81
2024/01/02 02:52:08;;;;;;;;;;;15.20;99.90;;;;;;5091740;28;19916;-80
2024/01/02 02:54:33;;;;;;;;;;;15.20;99.90;;;;;;5091614;28;19919;-82
2024/01/02 02:56:59;;;;;;;;;;;15.20;99.90;;;;;;5091964;28;19908;-80
2024/01/02 02:59:25;;;;;;;;;;;15.20;99.90;;;;;;5090563;28;19908;-81
2024/01/02 03:01:51;;;;;;;;;;;15.20;99.90;;;;;;5091903;28;19956;-80
2024/01/02 03:04:17;;;;;;;;;;;15.10;99.90;;;;;;5091420;28;19915;-80
2024/01/02 03:06:42;;;;;;;;;;;15.00;99.90;;;;;;5091685;28;20252;-81
2024/01/02 03:09:10;;;;;;;;;;;14.90;99.90;;;;;;5091404;28;19954;-80
2024/01/02 03:11:35;;;;;;;;;;;14.80;99.90;;;;;;5090043;28;19918;-81
2024/01/02 03:14:02;;;;;;;;;;;14.80;99.90;;;;;;5091617;28;20039;-81
2024/01/02 03:16:28;;;;;;;;;;;14.70;99.90;;;;;;5091417;28;19920;-81
2024/01/02 03:18:54;;;;;;;;;;;14.70;99.90;;;;;;5091100;28;19912;-80
2024/01/02 03:21:27;;;;;;;;;;;14.60;99.90;;;;;;5091086;28;20228;-81
2024/01/02 03:23:53;;;;;;;;;;;14.60;99.90;;;;;;5091158;28;19908;-81
2024/01/02 03:26:19;;;;;;;;;;;14.60;99.90;;;;;;5089838;28;20229;-81
2024/01/02 03:28:45;;;;;;;;;;;14.60;99.90;;;;;;5091151;28;19970;-81
2024/01/02 03:31:12;;;;;;;;;;;14.60;99.90;;;;;;5092503;28;19908;-81
2024/01/02 03:33:38;;;;;;;;;;;14.60;99.90;;;;;;5089275;28;19939;-81
2024/01/02 03:36:04;;;;;;;;;;;14.50;99.90;;;;;;5089359;28;19924;-80
2024/01/02 03:38:30;;;;;;;;;;;14.50;99.90;;;;;;5091168;28;19985;-81
2024/01/02 03:40:56;;;;;;;;;;;14.50;99.90;;;;;;5090557;28;20336;-81
2024/01/02 03:43:25;;;;;;;;;;;14.50;99.90;;;;;;5091071;28;19912;-81
2024/01/02 03:45:50;;;;;;;;;;;14.50;99.90;;;;;;5090831;28;19915;-80
2024/01/02 03:48:16;;;;;;;;;;;14.50;99.90;;;;;;5089741;28;19918;-81
2024/01/02 03:50:42;;;;;;;;;;;14.50;99.90;;;;;;5088025;28;20011;-82
2024/01/02 03:53:08;;;;;;;;;;;14.50;99.90;;;;;;5090724;28;19924;-81
2024/01/02 03:55:34;;;;;;;;;;;14.50;99.90;;;;;;5089167;28;20451;-81
2024/01/02 03:57:59;;;;;;;;;;;14.50;99.90;;;;;;5091385;28;19915;-80
2024/01/02 04:00:25;;;;;;;;;;;14.50;99.90;;;;;;5091212;28;19915;-81
2024/01/02 04:02:51;;;;;;;;;;;14.50;99.90;;;;;;5091171;28;20000;-80
2024/01/02 04:05:17;;;;;;;;;;;14.50;99.90;;;;;;5090928;28;19912;-80
2024/01/02 04:07:43;;;;;;;;;;;14.50;99.90;;;;;;5091451;28;19981;-81
2024/01/02 04:10:12;;;;;;;;;;;14.50;99.90;;;;;;5091960;28;19909;-81
2024/01/02 04:12:37;;;;;;;;;;;14.50;99.90;;;;;;5091524;28;19959;-80
2024/01/02 04:15:03;;;;;;;;;;;14.50;99.90;;;;;;5089899;28;20327;-81
2024/01/02 04:17:29;;;;;;;;;;;14.60;99.90;;;;;;5091844;28;19918;-81
2024/01/02 04:19:55;;;;;;;;;;;14.70;99.90;;;;;;5090999;28;20271;-81
2024/01/02 04:22:21;;;;;;;;;;;14.70;99.90;;;;;;5091240;28;19995;-81
2024/01/02 04:24:47;;;;;;;;;;;14.80;99.90;;;;;;5091993;28;19939;-78
2024/01/02 04:27:12;;;;;;;;;;;14.80;99.90;;;;;;5092280;28;20407;-82
2024/01/02 04:29:38;;;;;;;;;;;14.70;99.90;;;;;;5091933;28;19915;-81
2024/01/02 04:32:04;;;;;;;;;;;14.70;99.90;;;;;;5091647;28;20377;-80
2024/01/02 04:34:30;;;;;;;;;;;14.60;99.90;;;;;;5091415;28;19912;-81
2024/01/02 04:36:56;;;;;;;;;;;14.60;99.90;;;;;;5091268;28;19927;-82
2024/01/02 04:39:22;;;;;;;;;;;14.50;99.90;;;;;;5090066;28;20437;-81
2024/01/02 04:41:48;;;;;;;;;;;14.50;99.90;;;;;;5089929;28;19908;-80
2024/01/02 04:44:13;;;;;;;;;;;14.50;99.90;;;;;;5091995;28;20245;-80
2024/01/02 04:46:39;;;;;;;;;;;14.50;99.90;;;;;;5090350;28;19992;-82
2024/01/02 04:49:05;;;;;;;;;;;14.60;99.90;;;;;;5091344;28;20019;-79
2024/01/02 04:51:31;;;;;;;;;;;14.60;99.90;;;;;;5091810;28;19908;-80
2024/01/02 04:53:57;;;;;;;;;;;14.60;99.90;;;;;;5090887;28;19920;-79
2024/01/02 04:56:23;;;;;;;;;;;14.60;99.90;;;;;;5092409;28;19908;-80
2024/01/02 04:58:50;;;;;;;;;;;14.70;99.90;;;;;;5092484;28;20003;-78
2024/01/02 05:01:16;;;;;;;;;;;14.60;99.90;;;;;;5092213;28;19912;-80
2024/01/02 05:03:43;;;;;;;;;;;14.60;99.90;;;;;;5092030;28;20038;-80
2024/01/02 05:06:09;;;;;;;;;;;14.60;99.90;;;;;;5090829;28;19908;-80
2024/01/02 05:08:35;;;;;;;;;;;14.60;99.90;;;;;;5090804;28;19965;-79
2024/01/02 05:11:00;;;;;;;;;;;14.60;99.90;;;;;;5092371;28;19960;-80
2024/01/02 05:13:26;;;;;;;;;;;14.60;99.90;;;;;;5092394;28;19916;-79
2024/01/02 05:15:52;;;;;;;;;;;14.60;99.90;;;;;;5092111;28;19908;-79
2024/01/02 05:18:18;;;;;;;;;;;14.60;99.90;;;;;;5093342;28;20006;-79
2024/01/02 05:20:43;;;;;;;;;;;14.60;99.90;;;;;;5092569;28;19908;-80
2024/01/02 05:23:10;;;;;;;;;;;14.70;99.90;;;;;;5094252;28;19908;-80
2024/01/02 05:25:36;;;;;;;;;;;14.70;99.90;;;;;;5096975;28;20267;-80
2024/01/02 05:28:02;;;;;;;;;;;14.60;99.90;;;;;;5095100;28;19908;-79
2024/01/02 05:30:28;;;;;;;;;;;14.50;99.90;;;;;;5096427;28;19912;-80
2024/01/02 05:32:53;;;;;;;;;;;14.40;99.90;;;;;;5096854;28;19915;-81
2024/01/02 05:35:19;;;;;;;;;;;14.40;99.90;;;;;;5094996;28;19915;-81
2024/01/02 05:37:45;;;;;;;;;;;14.50;99.90;;;;;;5096272;28;19927;-80
2024/01/02 05:40:11;;;;;;;;;;;14.60;99.90;;;;;;5095198;28;19969;-81
2024/01/02 05:42:37;;;;;;;;;;;14.60;99.90;;;;;;5096481;28;19953;-81
2024/01/02 05:45:03;;;;;;;;;;;14.60;99.90;;;;;;5095025;28;20010;-81
2024/01/02 05:47:29;;;;;;;;;;;14.70;99.90;;;;;;5096109;28;20271;-81
2024/01/02 05:49:55;;;;;;;;;;;14.60;99.90;;;;;;5095731;28;19912;-81
2024/01/02 05:52:20;;;;;;;;;;;14.60;99.90;;;;;;5096020;28;19923;-81
2024/01/02 05:54:46;;;;;;;;;;;14.60;99.90;;;;;;5094684;28;19908;-81
2024/01/02 05:57:12;;;;;;;;;;;14.70;99.90;;;;;;5095457;28;19915;-81
2024/01/02 05:59:39;;;;;;;;;;;14.70;99.90;;;;;;5095604;28;19916;-81
2024/01/02 06:02:05;;;;;;;;;;;14.70;99.90;;;;;;5095695;28;19908;-81
2024/01/02 06:04:31;;;;;;;;;;;14.70;99.90;;;;;;5095628;28;19915;-81
2024/01/02 06:06:57;;;;;;;;;;;14.70;99.90;;;;;;5095790;28;20002;-81
2024/01/02 06:09:23;;;;;;;;;;;14.70;99.90;;;;;;5095523;28;19912;-81
2024/01/02 06:11:49;;;;;;;;;;;14.70;99.90;;;;;;5095208;28;19908;-81
2024/01/02 06:14:15;;;;;;;;;;;14.70;99.90;;;;;;5095440;28;19973;-81
2024/01/02 06:16:41;;;;;;;;;;;14.70;99.90;;;;;;5095695;28;19908;-80
2024/01/02 06:19:07;;;;;;;;;;;14.70;99.90;;;;;;5095191;28;19915;-81
2024/01/02 06:21:33;;;;;;;;;;;14.70;99.90;;;;;;5094941;28;19960;-81
2024/01/02 06:23:59;;;;;;;;;;;14.60;99.90;;;;;;5094987;28;19916;-81
2024/01/02 06:26:25;;;;;;;;;;;14.50;99.90;;;;;;5095290;28;19912;-81
2024/01/02 06:28:51;;;;;;;;;;;14.40;99.90;;;;;;5095238;28;19908;-80
2024/01/02 06:31:20;;;;;;;;;;;14.40;99.90;;;;;;5094892;28;19912;-79
2024/01/02 06:33:46;;;;;;;;;;;14.30;99.90;;;;;;5094087;28;19965;-81
2024/01/02 06:36:11;;;;;;;;;;;14.20;99.90;;;;;;5094458;28;20326;-81
2024/01/02 06:38:38;;;;;;;;;;;14.20;99.90;;;;;;5094894;28;19916;-78
2024/01/02 06:41:04;;;;;;;;;;;14.20;99.90;;;;;;5093050;28;20356;-82
2024/01/02 06:43:30;;;;;;;;;;;14.20;99.90;;;;;;5094514;28;19939;-82
2024/01/02 06:45:56;;;;;;;;;;;14.20;99.90;;;;;;5094366;28;19969;-82
2024/01/02 06:48:22;;;;;;;;;;;14.10;99.90;;;;;;5094497;28;20357;-82
2024/01/02 06:50:47;;;;;;;;;;;14.10;99.90;;;;;;5094197;28;19930;-82
2024/01/02 06:53:13;;;;;;;;;;;14.10;99.90;;;;;;5092499;28;19916;-83
2024/01/02 06:55:39;;;;;;;;;;;14.00;99.90;;;;;;5093862;28;19908;-82
2024/01/02 06:58:05;;;;;;;;;;;14.00;99.90;;;;;;5093655;28;19912;-82
2024/01/02 07:00:32;;;;;;;;;;;14.00;99.90;;;;;;5094098;28;19908;-80
2024/01/02 07:02:58;;;;;;;;;;;14.00;99.90;;;;;;5093852;28;19915;-82
2024/01/02 07:05:24;;;;;;;;;;;13.90;99.90;;;;;;5092024;28;19912;-82
2024/01/02 07:07:50;;;;;;;;;;;13.90;99.90;;;;;;5093636;28;19908;-82
2024/01/02 07:10:16;;;;;;;;;;;13.90;99.90;;;;;;5093720;28;20276;-83
2024/01/02 07:12:42;;;;;;;;;;;14.00;99.90;;;;;;5093294;28;19946;-82
2024/01/02 07:15:08;;;;;;;;;;;14.00;99.90;;;;;;5093803;28;20398;-82
2024/01/02 07:17:33;;;;;;;;;;;13.90;99.90;;;;;;5093943;28;20433;-82
2024/01/02 07:19:59;;;;;;;;;;;14.00;99.90;;;;;;5093892;28;19920;-82
2024/01/02 07:22:28;;;;;;;;;;;14.00;99.90;;;;;;5093907;28;19958;-81
2024/01/02 07:24:54;;;;;;;;;;;14.00;99.90;;;;;;5094197;28;19908;-83
2024/01/02 07:27:20;;;;;;;;;;;14.00;99.90;;;;;;5093833;28;19908;-82
2024/01/02 07:29:46;;;;;;;;;;;14.10;99.90;;;;;;5094000;28;19908;-82
2024/01/02 07:32:12;;;;;;;;;;;14.10;99.90;;;;;;5093919;28;20294;-82
2024/01/02 07:34:38;;;;;;;;;;;14.10;99.90;;;;;;5093576;28;19912;-82
2024/01/02 07:37:03;;;;;;;;;;;14.10;99.90;;;;;;5093572;28;19977;-82
2024/01/02 07:39:29;;;;;;;;;;;14.10;99.90;;;;;;5092350;28;19931;-82
2024/01/02 07:41:55;;;;;;;;;;;14.10;99.90;;;;;;5093489;28;20316;-82
2024/01/02 07:44:22;;;;;;;;;;;14.10;99.90;;;;;;5092973;28;19908;-82
2024/01/02 07:46:47;;;;;;;;;;;14.10;99.90;;;;;;5093455;28;19908;-82
2024/01/02 07:49:13;;;;;;;;;;;14.00;99.90;;;;;;5093553;28;19915;-81
2024/01/02 07:51:39;;;;;;;;;;;14.10;99.90;;;;;;5093298;28;19970;-82
2024/01/02 07:54:05;;;;;;;;;;;14.10;99.90;;;;;;5093017;28;20417;-81
2024/01/02 07:56:32;;;;;;;;;;;14.10;99.90;;;;;;5091694;28;19953;-82
2024/01/02 07:58:58;;;;;;;;;;;14.00;99.90;;;;;;5093131;28;19915;-82
2024/01/02 08:01:24;;;;;;;;;;;14.10;99.90;;;;;;5091799;28;19908;-82
2024/01/02 08:03:49;;;;;;;;;;;14.30;99.90;;;;;;5092918;28;19914;-82
2024/01/02 08:06:15;;;;;;;;;;;14.50;99.90;;;;;;5092937;28;19908;-80
2024/01/02 08:08:41;;;;;;;;;;;14.50;99.90;;;;;;5093000;28;19909;-81
2024/01/02 08:11:08;;;;;;;;;;;14.40;99.90;;;;;;5092746;28;19908;-81
2024/01/02 08:13:34;;;;;;;;;;;14.60;99.90;;;;;;5093250;28;19920;-81
2024/01/02 08:16:03;;;;;;;;;;;14.90;99.90;;;;;;5092940;28;19909;-82
2024/01/02 08:18:39;;;;;;;;;;;15.20;99.90;;;;;;5092572;28;20007;-83
2024/01/02 08:21:07;;;;;;;;;;;15.60;99.90;;;;;;5091270;28;19912;-83
2024/01/02 08:23:33;;;;;;;;;;;15.90;99.90;;;;;;5091362;28;20377;-82
2024/01/02 08:25:59;;;;;;;;;;;16.20;99.90;;;;;;5093766;28;19999;-83
2024/01/02 08:28:25;;;;;;;;;;;16.30;99.90;;;;;;5091971;28;19978;-83
2024/01/02 08:30:51;;;;;;;;;;;16.40;99.90;;;;;;5093191;28;19982;-83
2024/01/02 08:33:17;;;;;;;;;;;16.40;99.90;;;;;;5092792;28;20018;-83
2024/01/02 08:35:44;;;;;;;;;;;16.60;99.90;;;;;;5091695;28;20328;-81
2024/01/02 08:38:09;;;;;;;;;;;16.90;99.90;;;;;;5092804;28;20012;-82
2024/01/02 08:40:35;;;;;;;;;;;16.90;99.90;;;;;;5093579;28;20002;-81
2024/01/02 08:43:02;;;;;;;;;;;16.90;99.90;;;;;;5093022;28;20002;-81
2024/01/02 08:45:28;;;;;;;;;;;16.90;99.90;;;;;;5092731;28;20309;-81
2024/01/02 08:47:54;;;;;;;;;;;17.00;99.90;;;;;;5090911;28;20021;-83
2024/01/02 08:50:19;;;;;;;;;;;16.90;99.90;;;;;;5092268;28;19908;-80
2024/01/02 08:52:47;;;;;;;;;;;16.80;99.90;;;;;;5092357;28;19931;-80
2024/01/02 08:55:14;;;;;;;;;;;16.90;99.90;;;;;;5092470;28;19912;-79
2024/01/02 08:57:42;;;;;;;;;;;17.10;99.90;;;;;;5094714;28;19908;-80
2024/01/02 09:00:10;;;;;;;;;;;17.00;99.90;;;;;;5096026;28;19913;-80
2024/01/02 09:02:36;;;;;;;;;;;17.10;99.90;;;;;;5096317;28;20376;-80
2024/01/02 09:05:02;;;;;;;;;;;17.30;99.90;;;;;;5094203;28;20287;-80
2024/01/02 09:07:28;;;;;;;;;;;17.50;99.90;;;;;;5096084;28;19928;-80
2024/01/02 09:09:54;;;;;;;;;;;17.80;99.90;;;;;;5095699;28;19908;-80
2024/01/02 09:12:20;;;;;;;;;;;17.90;99.90;;;;;;5095600;28;19912;-80
2024/01/02 09:14:45;;;;;;;;;;;18.10;99.90;;;;;;5095770;28;20387;-81
2024/01/02 09:17:11;;;;;;;;;;;18.20;99.90;;;;;;5096162;28;19908;-80
2024/01/02 09:19:37;;;;;;;;;;;18.30;99.90;;;;;;5095871;28;19916;-80
2024/01/02 09:22:03;;;;;;;;;;;18.50;99.90;;;;;;5096081;28;19959;-80
2024/01/02 09:24:29;;;;;;;;;;;18.70;99.90;;;;;;5096368;28;19994;-81
2024/01/02 09:26:56;;;;;;;;;;;18.80;99.90;;;;;;5093468;28;19912;-80
2024/01/02 09:29:23;;;;;;;;;;;18.80;99.90;;;;;;5095142;28;20245;-82
2024/01/02 09:31:49;;;;;;;;;;;18.60;99.90;;;;;;5095108;28;20002;-82
2024/01/02 09:34:14;;;;;;;;;;;18.60;99.90;;;;;;5094882;28;20010;-82
2024/01/02 09:36:41;;;;;;;;;;;18.70;99.90;;;;;;5093168;28;20383;-83
2024/01/02 09:39:07;;;;;;;;;;;18.80;99.90;;;;;;5093853;28;20343;-81
2024/01/02 09:41:43;;;;;;;;;;;19.00;99.90;;;;;;5094835;28;19951;-82
2024/01/02 09:44:29;;;;;;;;;;;19.00;99.90;;;;;;5095326;28;19974;-83
2024/01/02 09:47:09;;;;;;;;;;;19.20;99.90;;;;;;5094101;28;19912;-80
2024/01/02 09:49:55;;;;;;;;;;;19.20;99.90;;;;;;5093668;28;19916;-81
2024/01/02 09:52:40;;;;;;;;;;;19.10;99.90;;;;;;5095087;28;19912;-82
2024/01/02 09:55:27;;;;;;;;;;;19.10;99.90;;;;;;5094317;28;20340;-81
2024/01/02 09:57:56;;;;;;;;;;;19.30;99.90;;;;;;5095860;28;19946;-82
2024/01/02 10:00:29;;;;;;;;;;;19.30;99.90;;;;;;5095724;28;19999;-81
2024/01/02 10:03:10;;;;;;;;;;;19.20;99.90;;;;;;5095341;28;20148;-83
2024/01/02 10:05:44;;;;;;;;;;;19.20;99.90;;;;;;5095219;28;20002;-82
2024/01/02 10:08:30;;;;;;;;;;;19.30;99.90;;;;;;5093206;28;20480;-82
2024/01/02 10:11:03;;;;;;;;;;;19.30;99.90;;;;;;5094608;28;19908;-82
2024/01/02 10:13:39;;;;;;;;;;;19.40;99.90;;;;;;5093546;28;20237;-83
2024/01/02 10:16:23;;;;;;;;;;;19.40;99.90;;;;;;5095267;28;19908;-82
2024/01/02 10:19:07;;;;;;;;;;;19.40;99.90;;;;;;5095233;28;20360;-82
2024/01/02 10:21:40;;;;;;;;;;;19.40;99.90;;;;;;5094919;28;19908;-83
2024/01/02 10:24:25;;;;;;;;;;;19.50;99.90;;;;;;5094779;28;19930;-82
2024/01/02 10:27:03;;;;;;;;;;;19.50;99.90;;;;;;5095196;28;19912;-82
2024/01/02 10:29:37;;;;;;;;;;;19.30;99.90;;;;;;5093322;28;19908;-82
2024/01/02 10:32:08;;;;;;;;;;;19.10;99.90;;;;;;5093590;28;20322;-82
2024/01/02 10:34:41;;;;;;;;;;;18.90;99.90;;;;;;5093166;28;20375;-83
2024/01/02 10:37:07;;;;;;;;;;;18.90;99.90;;;;;;5092964;28;20296;-82
2024/01/02 10:39:39;;;;;;;;;;;19.10;99.90;;;;;;5094489;28;20344;-83
2024/01/02 10:42:08;;;;;;;;;;;19.10;99.90;;;;;;5094395;28;19912;-81
2024/01/02 10:44:38;;;;;;;;;;;19.20;99.90;;;;;;5094557;28;19909;-80
2024/01/02 10:47:07;;;;;;;;;;;19.30;99.90;;;;;;5094335;28;19912;-84
2024/01/02 10:49:34;;;;;;;;;;;19.30;99.90;;;;;;5093700;28;19908;-78
2024/01/02 10:52:23;;;;;;;;;;;19.50;99.90;;;;;;5092758;28;19974;-83
2024/01/02 10:55:08;;;;;;;;;;;19.60;99.90;;;;;;5094670;28;20253;-82
2024/01/02 10:57:36;;;;;;;;;;;19.50;99.90;;;;;;5094165;28;20394;-83
2024/01/02 11:00:10;;;;;;;;;;;19.40;99.90;;;;;;5094390;28;19951;-82
2024/01/02 11:03:03;;;;;;;;;;;19.50;99.90;;;;;;5094149;28;19912;-82
2024/01/02 11:05:34;;;;;;;;;;;19.60;99.90;;;;;;5088479;28;19908;-83
2024/01/02 11:08:05;;;;;;;;;;;19.70;99.90;;;;;;5092393;28;19963;-83
2024/01/02 11:10:34;;;;;;;;;;;19.60;99.90;;;;;;5093902;28;20374;-84
2024/01/02 11:13:06;;;;;;;;;;;19.60;99.90;;;;;;5092008;28;19916;-81
2024/01/02 11:15:35;;;;;;;;;;;19.80;99.90;;;;;;5093898;28;19908;-83
2024/01/02 11:18:03;;;;;;;;;;;19.90;99.90;;;;;;5093720;28;19912;-83
2024/01/02 11:21:04;;;;;;;;;;;20.00;99.90;;;;;;5093540;28;19908;-83
2024/01/02 11:23:35;;;;;;;;;;;20.10;99.90;;;;;;5011074;28;20568;-83
2024/01/02 11:26:12;;;;;;;;;;;20.00;99.90;;;;;;5012251;28;20397;-82
2024/01/02 11:28:39;;;;;;;;;;;20.20;99.90;;;;;;5011749;28;19916;-83
2024/01/02 11:31:08;;;;;;;;;;;20.20;99.90;;;;;;5011498;28;20326;-82
2024/01/02 11:33:35;;;;;;;;;;;20.30;99.90;;;;;;5011452;28;19917;-82
2024/01/02 11:36:06;;;;;;;;;;;20.30;99.90;;;;;;5011468;28;19910;-83
2024/01/02 11:38:37;;;;;;;;;;;20.30;99.90;;;;;;4995041;28;19922;-82
2024/01/02 11:41:09;;;;;;;;;;;19.90;99.90;;;;;;5011227;28;20004;-83
2024/01/02 11:43:56;;;;;;;;;;;19.70;99.90;;;;;;5011672;28;19909;-83
2024/01/02 11:46:24;;;;;;;;;;;20.00;99.90;;;;;;5011445;28;19910;-82
2024/01/02 11:49:16;;;;;;;;;;;20.10;99.90;;;;;;5010467;28;20111;-82
2024/01/02 11:51:44;;;;;;;;;;;20.00;99.90;;;;;;4990879;28;19916;-82
2024/01/02 11:54:18;;;;;;;;;;;20.00;99.90;;;;;;5010439;28;20424;-82
2024/01/02 11:56:45;;;;;;;;;;;20.20;99.90;;;;;;5026896;28;19908;-81
2024/01/02 11:59:14;;;;;;;;;;;20.10;99.90;;;;;;5092422;28;19908;-81
2024/01/02 12:01:43;;;;;;;;;;;19.90;99.90;;;;;;5092749;28;19951;-82
2024/01/02 12:04:25;;;;;;;;;;;19.90;99.90;;;;;;5092063;28;19915;-82
2024/01/02 12:07:03;;;;;;;;;;;19.90;99.90;;;;;;5090940;28;19915;-81
2024/01/02 12:09:32;;;;;;;;;;;20.20;99.90;;;;;;5092412;28;19908;-81
2024/01/02 12:12:13;;;;;;;;;;;20.40;99.90;;;;;;5092522;28;19909;-81
2024/01/02 12:15:03;;;;;;;;;;;20.40;99.90;;;;;;5092062;28;19912;-82
2024/01/02 12:17:33;;;;;;;;;;;20.50;99.90;;;;;;5093051;28;19987;-81
2024/01/02 12:20:06;;;;;;;;;;;20.70;99.90;;;;;;5092856;28;19912;-82
2024/01/02 12:22:33;;;;;;;;;;;20.60;99.90;;;;;;5091656;28;19908;-81
2024/01/02 12:24:59;;;;;;;;;;;20.70;99.90;;;;;;5093585;28;19912;-82
2024/01/02 12:27:25;;;;;;;;;;;20.50;99.90;;;;;;5093044;28;19960;-81
2024/01/02 12:29:56;;;;;;;;;;;20.60;99.90;;;;;;5092922;28;19927;-80
2024/01/02 12:32:35;;;;;;;;;;;20.30;99.90;;;;;;5096421;28;19912;-81
2024/01/02 12:35:02;;;;;;;;;;;20.20;99.90;;;;;;5097185;28;19915;-82
2024/01/02 12:37:34;;;;;;;;;;;20.20;99.90;;;;;;5096936;28;20021;-81
2024/01/02 12:40:03;;;;;;;;;;;20.30;99.90;;;;;;5097117;28;19963;-82
2024/01/02 12:42:33;;;;;;;;;;;20.30;99.90;;;;;;5097787;28;19908;-81
2024/01/02 12:45:02;;;;;;;;;;;20.20;99.90;;;;;;5096987;28;19908;-81
2024/01/02 12:47:32;;;;;;;;;;;20.30;99.90;;;;;;5096964;28;19915;-82
2024/01/02 12:50:02;;;;;;;;;;;20.40;99.90;;;;;;5096625;28;19908;-82
2024/01/02 12:52:35;;;;;;;;;;;20.40;99.90;;;;;;5096683;28;19912;-82
2024/01/02 12:55:02;;;;;;;;;;;20.20;99.90;;;;;;5097342;28;19912;-82
2024/01/02 12:57:33;;;;;;;;;;;20.30;99.90;;;;;;5096782;28;19908;-81
2024/01/02 12:59:59;;;;;;;;;;;20.40;99.90;;;;;;5096756;28;19915;-82
2024/01/02 13:02:24;;;;;;;;;;;20.50;99.90;;;;;;5095860;28;19920;-82
2024/01/02 13:04:50;;;;;;;;;;;20.50;99.90;;;;;;5096301;28;19916;-82
2024/01/02 13:07:16;;;;;;;;;;;20.40;99.90;;;;;;5096537;28;20368;-82
2024/01/02 13:09:43;;;;;;;;;;;20.40;99.90;;;;;;5096151;28;19985;-82
2024/01/02 13:12:12;;;;;;;;;;;20.40;99.90;;;;;;5096583;28;19915;-82
2024/01/02 13:14:41;;;;;;;;;;;20.40;99.90;;;;;;5096474;28;19961;-82
2024/01/02 13:17:06;;;;;;;;;;;20.40;99.90;;;;;;5096766;28;19908;-82
2024/01/02 13:19:32;;;;;;;;;;;20.40;99.90;;;;;;5096254;28;19913;-82
2024/01/02 13:21:58;;;;;;;;;;;20.50;99.90;;;;;;5096507;28;19909;-82
2024/01/02 13:24:24;;;;;;;;;;;20.60;99.90;;;;;;5096747;28;19909;-82
2024/01/02 13:26:51;;;;;;;;;;;20.70;99.90;;;;;;5096308;28;20295;-83
2024/01/02 13:29:17;;;;;;;;;;;20.80;99.90;;;;;;5096176;28;19932;-80
2024/01/02 13:31:44;;;;;;;;;;;20.80;99.90;;;;;;5094785;28;20395;-82
2024/01/02 13:34:26;;;;;;;;;;;20.80;99.90;;;;;;5095985;28;20448;-82
2024/01/02 13:36:55;;;;;;;;;;;20.80;99.90;;;;;;5096347;28;20383;-81
2024/01/02 13:39:35;;;;;;;;;;;20.80;99.90;;;;;;5096048;28;20269;-82
2024/01/02 13:42:04;;;;;;;;;;;20.70;99.90;;;;;;5095705;28;19908;-82
2024/01/02 13:44:34;;;;;;;;;;;20.50;99.90;;;;;;5095372;28;19997;-82
2024/01/02 13:47:00;;;;;;;;;;;20.50;99.90;;;;;;5095830;28;19915;-82
2024/01/02 13:49:45;;;;;;;;;;;20.50;99.90;;;;;;5095220;28;20078;-81
2024/01/02 13:52:11;;;;;;;;;;;20.30;99.90;;;;;;5093801;28;19909;-82
2024/01/02 13:54:43;;;;;;;;;;;20.10;99.90;;;;;;5095189;28;19919;-83
2024/01/02 13:57:09;;;;;;;;;;;20.20;99.90;;;;;;5095203;28;19908;-82
2024/01/02 13:59:35;;;;;;;;;;;20.10;99.90;;;;;;5094989;28;19915;-82
2024/01/02 14:02:09;;;;;;;;;;;19.70;99.90;;;;;;5095144;28;20018;-82
2024/01/02 14:04:35;;;;;;;;;;;19.40;99.90;;;;;;5095006;28;20487;-82
2024/01/02 14:07:02;;;;;;;;;;;19.50;99.90;;;;;;5095563;28;19942;-80
2024/01/02 14:09:27;;;;;;;;;;;19.70;99.90;;;;;;5095353;28;19909;-81
2024/01/02 14:12:00;;;;;;;;;;;19.70;99.90;;;;;;5095046;28;20269;-81
2024/01/02 14:14:31;;;;;;;;;;;19.70;99.90;;;;;;5095096;28;19965;-81
2024/01/02 14:17:00;;;;;;;;;;;19.60;99.90;;;;;;5095533;28;20019;-81
2024/01/02 14:19:31;;;;;;;;;;;19.50;99.90;;;;;;5095145;28;20405;-80
2024/01/02 14:22:06;;;;;;;;;;;19.30;99.90;;;;;;5095523;28;19919;-81